createdAt,value
2022-09-16T00:02:35.749Z,82.00
2022-09-16T00:05:08.841Z,83.10
2022-09-16T00:07:40.539Z,84.80
2022-09-16T00:10:12.718Z,83.30
2022-09-16T00:12:44.070Z,82.80
2022-09-16T00:15:16.083Z,81.30
2022-09-16T00:17:48.212Z,80.20
2022-09-16T00:20:18.393Z,79.80
2022-09-16T00:22:48.544Z,79.60
2022-09-16T00:25:18.743Z,79.50
2022-09-16T00:27:51.425Z,79.20
2022-09-16T00:30:21.665Z,79.10
2022-09-16T00:32:57.804Z,77.40
2022-09-16T00:38:11.201Z,78.30
2022-09-16T00:40:50.643Z,78.20
2022-09-16T00:43:23.369Z,78.10
2022-09-16T00:46:00.781Z,77.10
2022-09-16T00:48:34.006Z,77.00
2022-09-16T00:51:11.337Z,74.60
2022-09-16T00:54:04.943Z,72.90
2022-09-16T00:56:43.064Z,74.30
2022-09-16T00:59:22.390Z,75.20
2022-09-16T01:01:53.439Z,75.50
2022-09-16T01:04:34.552Z,74.30
2022-09-16T01:07:05.319Z,73.20
2022-09-16T01:09:36.308Z,75.20
2022-09-16T01:12:08.016Z,72.60
2022-09-16T01:14:56.916Z,72.70
2022-09-16T01:18:03.683Z,77.20
2022-09-16T01:20:43.149Z,73.70
2022-09-16T01:23:27.342Z,73.00
2022-09-16T01:25:57.502Z,71.50
2022-09-16T01:28:40.262Z,70.90
2022-09-16T01:31:35.063Z,71.30
2022-09-16T01:34:39.764Z,72.00
2022-09-16T01:37:40.704Z,71.90
2022-09-16T01:40:37.120Z,69.20
2022-09-16T01:43:43.052Z,69.20
2022-09-16T01:46:25.680Z,70.30
2022-09-16T01:49:05.289Z,70.20
2022-09-16T01:51:49.481Z,69.40
2022-09-16T01:54:47.150Z,70.00
2022-09-16T01:57:16.789Z,69.20
2022-09-16T02:00:01.351Z,69.40
2022-09-16T02:03:08.042Z,69.20
2022-09-16T02:06:06.599Z,69.30
2022-09-16T02:08:48.376Z,68.30
2022-09-16T02:11:20.349Z,68.00
2022-09-16T02:14:03.299Z,67.70
2022-09-16T02:16:46.406Z,68.60
2022-09-16T02:19:23.959Z,66.90
2022-09-16T02:21:59.580Z,67.40
2022-09-16T02:24:33.005Z,66.10
2022-09-16T02:27:07.027Z,67.30
2022-09-16T02:29:45.601Z,67.50
2022-09-16T02:32:18.123Z,69.40
2022-09-16T02:34:54.343Z,66.20
2022-09-16T02:37:33.045Z,67.40
2022-09-16T02:40:09.481Z,68.70
2022-09-16T02:42:50.723Z,67.80
2022-09-16T02:45:24.164Z,67.80
2022-09-16T02:48:16.009Z,68.70
2022-09-16T02:54:16.658Z,69.00
2022-09-16T02:56:47.094Z,70.10
2022-09-16T02:59:19.121Z,67.80
2022-09-16T03:01:52.357Z,69.80
2022-09-16T03:04:23.487Z,70.00
2022-09-16T03:06:54.108Z,69.00
2022-09-16T03:09:26.853Z,67.20
2022-09-16T03:12:10.081Z,68.60
2022-09-16T03:15:29.930Z,69.80
2022-09-16T03:18:33.566Z,68.10
2022-09-16T03:21:04.740Z,67.80
2022-09-16T03:23:41.180Z,68.70
2022-09-16T03:26:11.037Z,67.70
2022-09-16T03:29:01.877Z,68.50
2022-09-16T03:31:35.538Z,69.10
2022-09-16T03:34:29.575Z,67.40
2022-09-16T03:37:10.453Z,68.70
2022-09-16T03:39:59.371Z,68.70
2022-09-16T03:42:29.600Z,69.00
2022-09-16T03:45:00.199Z,70.00
2022-09-16T03:47:30.849Z,70.50
2022-09-16T03:50:01.157Z,71.40
2022-09-16T03:52:31.779Z,69.80
2022-09-16T03:55:02.558Z,69.90
2022-09-16T03:57:33.803Z,69.60
2022-09-16T04:00:04.986Z,70.20
2022-09-16T04:02:35.260Z,71.20
2022-09-16T04:05:06.403Z,71.40
2022-09-16T04:07:37.175Z,72.20
2022-09-16T04:10:09.348Z,71.70
2022-09-16T04:12:39.905Z,73.10
2022-09-16T04:15:14.662Z,73.30
2022-09-16T04:17:46.151Z,71.50
2022-09-16T04:20:16.306Z,70.30
2022-09-16T04:22:46.961Z,72.00
2022-09-16T04:25:26.796Z,70.80
2022-09-16T04:27:57.231Z,70.00
2022-09-16T04:30:28.830Z,69.90
2022-09-16T04:32:59.665Z,70.50
2022-09-16T04:35:30.355Z,69.20
2022-09-16T04:38:10.287Z,70.20
2022-09-16T04:40:45.095Z,69.80
2022-09-16T04:43:25.318Z,71.30
2022-09-16T04:45:55.988Z,71.20
2022-09-16T04:48:28.194Z,70.70
2022-09-16T04:51:04.942Z,71.70
2022-09-16T04:53:34.911Z,72.00
2022-09-16T04:56:18.457Z,71.50
2022-09-16T04:58:53.092Z,71.70
2022-09-16T05:01:30.349Z,72.90
2022-09-16T05:04:03.914Z,70.20
2022-09-16T05:06:37.572Z,69.00
2022-09-16T05:09:09.772Z,69.00
2022-09-16T05:11:43.496Z,70.10
2022-09-16T05:14:18.081Z,69.50
2022-09-16T05:16:50.060Z,70.10
2022-09-16T05:19:20.303Z,70.20
2022-09-16T05:21:50.507Z,70.50
2022-09-16T05:24:20.697Z,71.60
2022-09-16T05:26:51.503Z,71.70
2022-09-16T05:29:22.281Z,72.00
2022-09-16T05:31:52.736Z,71.60
2022-09-16T05:34:27.021Z,71.90
2022-09-16T05:36:58.402Z,72.80
2022-09-16T05:39:28.761Z,72.20
2022-09-16T05:42:02.420Z,72.40
2022-09-16T05:44:33.185Z,72.70
2022-09-16T05:47:04.958Z,72.00
2022-09-16T05:49:35.586Z,72.40
2022-09-16T05:52:06.445Z,72.90
2022-09-16T05:54:44.239Z,72.70
2022-09-16T05:57:15.658Z,72.90
2022-09-16T05:59:46.025Z,72.90
2022-09-16T06:02:16.395Z,72.60
2022-09-16T06:04:46.836Z,72.70
2022-09-16T06:07:17.658Z,72.90
2022-09-16T06:09:51.191Z,72.50
2022-09-16T06:12:21.406Z,71.40
2022-09-16T06:14:51.605Z,70.90
2022-09-16T06:17:26.172Z,70.40
2022-09-16T06:19:56.918Z,70.40
2022-09-16T06:22:31.176Z,70.50
2022-09-16T06:25:01.372Z,69.50
2022-09-16T06:27:34.497Z,70.40
2022-09-16T06:30:05.053Z,69.70
2022-09-16T06:32:35.916Z,70.60
2022-09-16T06:35:06.610Z,70.10
2022-09-16T06:37:38.448Z,70.00
2022-09-16T06:40:10.570Z,70.10
2022-09-16T06:42:41.296Z,70.90
2022-09-16T06:45:12.247Z,70.20
2022-09-16T06:47:50.537Z,70.50
2022-09-16T06:50:23.496Z,70.20
2022-09-16T06:52:54.109Z,70.20
2022-09-16T06:55:24.263Z,70.00
2022-09-16T06:57:54.497Z,69.70
2022-09-16T07:00:30.121Z,70.60
2022-09-16T07:03:01.410Z,71.40
2022-09-16T07:05:31.674Z,71.00
2022-09-16T07:08:01.859Z,71.70
2022-09-16T07:10:34.957Z,71.00
2022-09-16T07:13:05.703Z,71.30
2022-09-16T07:15:50.959Z,70.50
2022-09-16T07:18:26.119Z,69.60
2022-09-16T07:21:02.407Z,70.60
2022-09-16T07:23:34.105Z,70.00
2022-09-16T07:26:08.279Z,70.50
2022-09-16T07:28:39.610Z,70.40
2022-09-16T07:31:15.308Z,70.50
2022-09-16T07:33:48.076Z,71.30
2022-09-16T07:36:30.000Z,71.70
2022-09-16T07:39:01.094Z,72.00
2022-09-16T07:41:34.575Z,71.90
2022-09-16T07:44:06.395Z,72.50
2022-09-16T07:46:40.391Z,71.80
2022-09-16T07:49:13.605Z,72.40
2022-09-16T07:51:44.821Z,72.80
2022-09-16T07:54:20.278Z,73.10
2022-09-16T07:56:52.029Z,73.50
2022-09-16T07:59:22.541Z,73.90
2022-09-16T08:01:53.271Z,73.70
2022-09-16T08:04:23.728Z,74.30
2022-09-16T08:06:53.918Z,74.70
2022-09-16T08:09:38.490Z,74.00
2022-09-16T08:12:13.813Z,74.70
2022-09-16T08:14:44.237Z,74.90
2022-09-16T08:17:14.479Z,74.90
2022-09-16T08:19:45.903Z,75.40
2022-09-16T08:22:16.244Z,75.90
2022-09-16T08:24:46.771Z,76.00
2022-09-16T08:27:17.146Z,76.60
2022-09-16T08:29:47.506Z,76.20
2022-09-16T08:32:18.035Z,76.10
2022-09-16T08:34:49.215Z,75.50
2022-09-16T08:37:19.406Z,76.70
2022-09-16T08:39:53.235Z,77.20
2022-09-16T08:42:26.610Z,76.80
2022-09-16T08:45:07.439Z,77.40
2022-09-16T08:47:40.726Z,77.30
2022-09-16T08:50:20.436Z,77.30
2022-09-16T08:52:53.295Z,77.30
2022-09-16T08:55:50.898Z,77.50
2022-09-16T08:58:29.926Z,77.60
2022-09-16T09:01:06.771Z,78.00
2022-09-16T09:03:40.105Z,77.40
2022-09-16T09:06:30.386Z,77.30
2022-09-16T09:09:36.371Z,77.10
2022-09-16T09:12:18.025Z,78.10
2022-09-16T09:15:02.225Z,78.20
2022-09-16T09:17:50.925Z,78.80
2022-09-16T09:20:49.052Z,78.60
2022-09-16T09:23:49.526Z,79.70
2022-09-16T09:26:29.882Z,79.90
2022-09-16T09:29:18.187Z,79.30
2022-09-16T09:32:24.182Z,79.40
2022-09-16T09:35:20.229Z,79.80
2022-09-16T09:38:28.082Z,79.10
2022-09-16T09:41:24.892Z,79.50
2022-09-16T09:44:17.683Z,80.10
2022-09-16T09:46:56.395Z,79.80
2022-09-16T09:49:38.330Z,80.00
2022-09-16T09:52:09.767Z,79.70
2022-09-16T09:54:43.609Z,80.10
2022-09-16T09:57:36.298Z,80.50
2022-09-16T10:00:26.840Z,81.20
2022-09-16T10:03:07.764Z,81.80
2022-09-16T10:05:38.017Z,81.80
2022-09-16T10:08:24.402Z,82.90
2022-09-16T10:10:57.797Z,84.40
2022-09-16T10:13:31.914Z,84.40
2022-09-16T10:16:33.243Z,84.80
2022-09-16T10:19:30.934Z,84.70
2022-09-16T10:25:28.318Z,86.10
2022-09-16T10:28:04.953Z,85.80
2022-09-16T10:30:44.275Z,86.20
2022-09-16T10:33:28.455Z,86.70
2022-09-16T10:36:20.858Z,87.30
2022-09-16T10:39:04.685Z,87.80
2022-09-16T10:41:48.546Z,87.40
2022-09-16T10:44:33.997Z,87.80
2022-09-16T10:47:17.165Z,87.00
2022-09-16T10:49:53.982Z,87.00
2022-09-16T10:52:27.945Z,87.10
2022-09-16T10:54:59.042Z,87.30
2022-09-16T10:57:43.965Z,86.90
2022-09-16T11:00:43.526Z,87.40
2022-09-16T11:03:52.035Z,87.20
2022-09-16T11:06:39.922Z,87.30
2022-09-16T11:09:39.040Z,87.90
2022-09-16T11:12:46.121Z,87.90
2022-09-16T11:15:37.823Z,88.20
2022-09-16T11:18:32.720Z,88.90
2022-09-16T11:21:18.471Z,88.10
2022-09-16T11:24:21.008Z,87.60
2022-09-16T11:27:32.691Z,87.40
2022-09-16T11:30:09.713Z,88.10
2022-09-16T11:32:48.518Z,87.90
2022-09-16T11:35:22.094Z,87.90
2022-09-16T11:37:55.880Z,87.80
2022-09-16T11:41:03.779Z,87.60
2022-09-16T11:44:07.934Z,88.70
2022-09-16T11:47:00.110Z,88.60
2022-09-16T11:49:45.482Z,88.30
2022-09-16T11:52:34.517Z,88.80
2022-09-16T11:55:23.125Z,88.60
2022-09-16T11:58:05.594Z,88.50
2022-09-16T12:00:39.704Z,87.80
2022-09-16T12:03:44.583Z,88.50
2022-09-16T12:06:22.049Z,87.60
2022-09-16T12:08:59.238Z,86.60
2022-09-16T12:11:45.388Z,86.50
2022-09-16T12:14:33.234Z,86.30
2022-09-16T12:17:28.215Z,85.70
2022-09-16T12:20:30.260Z,85.70
2022-09-16T12:23:30.387Z,85.80
2022-09-16T12:26:18.868Z,85.70
2022-09-16T12:28:53.005Z,84.80
2022-09-16T12:31:54.556Z,85.20
2022-09-16T12:34:34.055Z,84.60
2022-09-16T12:37:33.484Z,85.20
2022-09-16T12:40:05.304Z,85.20
2022-09-16T12:43:14.306Z,86.50
2022-09-16T12:46:12.326Z,90.70
2022-09-16T12:48:56.732Z,92.20
2022-09-16T12:51:56.632Z,92.80
2022-09-16T12:59:07.493Z,94.30
2022-09-16T13:01:48.215Z,94.50
2022-09-16T13:04:28.261Z,94.30
2022-09-16T13:07:03.821Z,94.10
2022-09-16T13:09:41.038Z,94.40
2022-09-16T13:12:39.638Z,94.40
2022-09-16T13:15:46.754Z,94.40
2022-09-16T13:18:20.249Z,94.70
2022-09-16T13:21:03.697Z,95.20
2022-09-16T13:23:37.256Z,95.80
2022-09-16T13:26:10.609Z,95.40
2022-09-16T13:28:46.076Z,95.80
2022-09-16T13:31:16.953Z,96.10
2022-09-16T13:33:49.912Z,96.40
2022-09-16T13:36:23.179Z,96.60
2022-09-16T13:38:55.925Z,96.50
2022-09-16T13:41:45.220Z,96.40
2022-09-16T13:44:33.064Z,96.60
2022-09-16T13:47:12.366Z,96.60
2022-09-16T13:50:22.979Z,96.30
2022-09-16T13:52:54.723Z,96.50
2022-09-16T13:55:29.256Z,96.50
2022-09-16T13:58:08.306Z,96.00
2022-09-16T14:00:58.664Z,95.70
2022-09-16T14:04:05.211Z,95.70
2022-09-16T14:06:50.575Z,95.50
2022-09-16T14:09:31.335Z,95.50
2022-09-16T14:12:29.849Z,95.40
2022-09-16T14:15:03.888Z,95.60
2022-09-16T14:18:02.224Z,96.00
2022-09-16T14:20:33.336Z,96.20
2022-09-16T14:23:05.572Z,96.00
2022-09-16T14:25:38.559Z,95.90
2022-09-16T14:28:26.831Z,96.20
2022-09-16T14:31:05.554Z,96.10
2022-09-16T14:33:56.902Z,95.80
2022-09-16T14:36:33.884Z,96.60
2022-09-16T14:39:12.278Z,96.50
2022-09-16T14:41:47.119Z,96.00
2022-09-16T14:44:24.391Z,96.20
2022-09-16T14:47:21.819Z,96.40
2022-09-16T14:50:13.990Z,96.40
2022-09-16T14:52:54.434Z,96.30
2022-09-16T14:55:27.474Z,96.50
2022-09-16T14:57:58.413Z,96.50
2022-09-16T15:00:52.039Z,96.30
2022-09-16T15:03:27.732Z,96.30
2022-09-16T15:06:01.591Z,96.40
2022-09-16T15:08:46.955Z,96.30
2022-09-16T15:11:50.347Z,96.40
2022-09-16T15:14:17.221Z,96.30
2022-09-16T15:16:59.985Z,96.40
2022-09-16T15:19:41.611Z,96.20
2022-09-16T15:22:25.259Z,96.10
2022-09-16T15:24:59.044Z,95.90
2022-09-16T15:27:33.559Z,96.00
2022-09-16T15:30:07.367Z,96.00
2022-09-16T15:32:47.620Z,96.00
2022-09-16T15:35:32.472Z,96.20
2022-09-16T15:38:16.783Z,96.20
2022-09-16T15:40:47.672Z,96.10
2022-09-16T15:43:30.773Z,96.10
2022-09-16T15:46:23.696Z,96.10
2022-09-16T15:49:02.782Z,96.20
2022-09-16T15:51:36.103Z,96.30
2022-09-16T15:54:29.035Z,96.60
2022-09-16T15:57:07.272Z,96.40
2022-09-16T16:00:20.120Z,96.30
2022-09-16T16:02:57.545Z,96.20
2022-09-16T16:05:31.054Z,96.00
2022-09-16T16:08:08.988Z,95.80
2022-09-16T16:10:41.772Z,95.90
2022-09-16T16:13:11.985Z,96.00
2022-09-16T16:15:43.146Z,95.60
2022-09-16T16:18:14.411Z,95.70
2022-09-16T16:20:44.596Z,95.80
2022-09-16T16:26:16.863Z,95.40
2022-09-16T16:35:25.915Z,95.70
2022-09-16T16:50:37.027Z,96.40
2022-09-16T16:59:21.589Z,96.10
2022-09-16T17:04:43.478Z,96.30
2022-09-16T17:10:38.302Z,96.20
2022-09-16T17:13:08.515Z,95.90
2022-09-16T17:15:38.883Z,95.70
2022-09-16T17:18:41.621Z,95.80
2022-09-16T17:24:30.281Z,95.50
2022-09-16T17:27:00.471Z,95.40
2022-09-16T17:32:17.101Z,95.80
2022-09-16T17:34:47.474Z,95.80
2022-09-16T17:37:21.360Z,95.80
2022-09-16T17:39:53.090Z,95.80
2022-09-16T17:42:26.642Z,95.80
2022-09-16T17:44:56.887Z,96.00
2022-09-16T17:47:27.448Z,96.00
2022-09-16T17:59:24.455Z,96.20
2022-09-16T18:01:56.281Z,95.80
2022-09-16T18:04:27.114Z,95.90
2022-09-16T18:07:07.502Z,95.90
2022-09-16T18:09:57.725Z,96.00
2022-09-16T18:12:52.915Z,96.00
2022-09-16T18:15:23.333Z,95.60
2022-09-16T18:21:04.011Z,95.20
2022-09-16T18:23:34.923Z,95.50
2022-09-16T18:26:15.888Z,96.00
2022-09-16T18:29:08.600Z,95.90
2022-09-16T18:31:38.749Z,95.80
2022-09-16T18:34:09.785Z,95.80
2022-09-16T18:36:40.879Z,96.20
2022-09-16T18:39:16.355Z,96.50
2022-09-16T18:41:48.100Z,96.80
2022-09-16T18:44:27.782Z,96.90
2022-09-16T18:46:59.186Z,96.90
2022-09-16T18:49:30.793Z,97.00
2022-09-16T18:52:01.059Z,97.10
2022-09-16T18:54:32.655Z,97.00
2022-09-16T18:57:03.987Z,96.90
2022-09-16T18:59:36.112Z,96.80
2022-09-16T19:02:07.379Z,96.70
2022-09-16T19:04:42.452Z,96.40
2022-09-16T19:07:15.766Z,96.50
2022-09-16T19:09:47.704Z,96.60
2022-09-16T19:12:18.572Z,96.50
2022-09-16T19:14:49.178Z,96.40
2022-09-16T19:17:19.782Z,96.60
2022-09-16T19:19:52.621Z,96.60
2022-09-16T19:22:23.075Z,96.60
2022-09-16T19:24:56.569Z,96.60
2022-09-16T19:27:26.817Z,96.50
2022-09-16T19:29:57.022Z,96.40
2022-09-16T19:32:27.325Z,96.20
2022-09-16T19:34:58.072Z,96.20
2022-09-16T19:37:28.255Z,96.20
2022-09-16T19:39:58.443Z,96.50
2022-09-16T19:42:28.687Z,96.50
2022-09-16T19:44:58.833Z,96.40
2022-09-16T19:47:29.020Z,96.40
2022-09-16T19:49:59.682Z,96.60
2022-09-16T19:52:30.177Z,96.40
2022-09-16T19:55:00.364Z,96.30
2022-09-16T19:57:30.834Z,96.30
2022-09-16T20:00:00.997Z,96.50
2022-09-16T20:02:31.254Z,96.50
2022-09-16T20:05:04.786Z,96.50
2022-09-16T20:07:35.197Z,96.70
2022-09-16T20:10:05.837Z,96.80
2022-09-16T20:12:36.729Z,96.80
2022-09-16T20:15:07.119Z,96.70
2022-09-16T20:17:39.914Z,96.80
2022-09-16T20:20:10.815Z,96.80
2022-09-16T20:22:41.025Z,96.90
2022-09-16T20:25:23.050Z,97.00
2022-09-16T20:27:54.211Z,97.10
2022-09-16T20:30:25.020Z,97.00
2022-09-16T20:32:55.197Z,97.00
2022-09-16T20:35:25.970Z,96.90
2022-09-16T20:37:56.110Z,96.90
2022-09-16T20:40:26.272Z,97.00
2022-09-16T20:42:56.508Z,97.00
2022-09-16T20:45:26.844Z,96.90
2022-09-16T20:47:58.009Z,96.90
2022-09-16T20:50:28.186Z,97.00
2022-09-16T20:52:58.701Z,97.10
2022-09-16T20:55:29.029Z,97.00
2022-09-16T20:57:59.370Z,97.10
2022-09-16T21:00:29.781Z,97.10
2022-09-16T21:03:00.190Z,96.90
2022-09-16T21:05:30.551Z,96.50
2022-09-16T21:08:00.911Z,96.50
2022-09-16T21:10:31.233Z,96.70
2022-09-16T21:13:01.366Z,96.80
2022-09-16T21:15:34.669Z,96.90
2022-09-16T21:18:05.348Z,96.80
2022-09-16T21:20:35.552Z,96.80
2022-09-16T21:23:09.060Z,96.80
2022-09-16T21:25:40.234Z,96.40
2022-09-16T21:28:10.816Z,96.10
2022-09-16T21:30:41.804Z,95.90
2022-09-16T21:33:12.033Z,95.80
2022-09-16T21:35:42.797Z,96.10
2022-09-16T21:38:13.333Z,96.40
2022-09-16T21:40:43.789Z,96.00
2022-09-16T21:43:14.113Z,96.20
2022-09-16T21:45:48.337Z,96.30
2022-09-16T21:48:21.111Z,96.10
2022-09-16T21:50:52.043Z,96.00
2022-09-16T21:53:26.343Z,96.30
2022-09-16T21:56:07.368Z,95.80
2022-09-16T21:58:38.202Z,95.80
2022-09-16T22:01:09.915Z,95.30
2022-09-16T22:03:44.887Z,95.30
2022-09-16T22:06:17.377Z,95.30
2022-09-16T22:08:49.196Z,94.90
2022-09-16T22:11:21.282Z,95.40
2022-09-16T22:13:52.891Z,95.00
2022-09-16T22:16:29.623Z,94.90
2022-09-16T22:19:06.046Z,95.40
2022-09-16T22:21:40.147Z,94.90
2022-09-16T22:24:12.399Z,94.80
2022-09-16T22:26:43.099Z,94.00
2022-09-16T22:29:14.832Z,94.10
2022-09-16T22:31:45.259Z,94.30
2022-09-16T22:34:15.543Z,93.60
2022-09-16T22:36:45.817Z,94.10
2022-09-16T22:39:22.753Z,92.90
2022-09-16T22:41:52.985Z,92.60
2022-09-16T22:44:23.409Z,92.30
2022-09-16T22:46:54.004Z,92.40
2022-09-16T22:49:24.202Z,92.20
2022-09-16T22:51:55.743Z,92.60
2022-09-16T22:54:26.211Z,91.60
2022-09-16T22:56:56.823Z,91.70
2022-09-16T22:59:27.292Z,90.90
2022-09-16T23:01:57.606Z,91.40
2022-09-16T23:04:29.430Z,90.80
2022-09-16T23:07:00.290Z,90.20
2022-09-16T23:09:30.450Z,90.10
2022-09-16T23:12:01.333Z,88.40
2022-09-16T23:14:31.921Z,88.80
2022-09-16T23:17:02.832Z,89.20
2022-09-16T23:19:33.025Z,87.70
2022-09-16T23:22:03.902Z,87.40
2022-09-16T23:24:34.075Z,88.40
2022-09-16T23:27:04.714Z,86.60
2022-09-16T23:29:34.846Z,87.60
2022-09-16T23:32:06.012Z,88.10
2022-09-16T23:34:36.154Z,84.80
2022-09-16T23:37:06.533Z,85.10
2022-09-16T23:39:36.659Z,84.20
2022-09-16T23:42:07.319Z,84.40
2022-09-16T23:44:37.496Z,83.20
2022-09-16T23:47:11.603Z,81.20
2022-09-16T23:49:42.174Z,78.40
2022-09-16T23:52:25.763Z,78.70
2022-09-16T23:54:56.244Z,78.40
2022-09-16T23:57:27.069Z,80.10
2022-09-16T23:59:57.539Z,82.10
